Paro, Bhutan
Current Conditions -  °F | °C
As of 4:20 PM on Wednesday 22 Oct 2014 (Local Time) from VQPR Reporting Station
Few Clouds Few Clouds  
Wind Chill: 66°   Ceiling: Unl
Heat Index: 66°   Visibility: 6mi
Dew Point: 34°   Wind: 18mph
Humidity: 30%   Direction: 150°SSE
Pressure: 30.18"   Gusts: NA
Location:  27.51°N, 89.36°E
Report Text: VQPR 221020Z 15016KT 9999 FEW040 19/01 Q1022 NOSIG
Loading
Personal Weather Stations






























Interactive Weather Map New forecast layout! Learn more

10-Day Weather Forecast

Advertisements
Track Severe Weather on mobile